F/V Argentario — FGPE — position and weather

sailwx.info

Track history (hours):
 
Tides and Currents Weather Stations Pressure Air Temp Water Temp Dewpoint Dewpoint Depression Visibility Wind Speed Wind Dir Waves Ship Positions

F/V Argentario

Last reported at 2017-Feb-22 03:32 UTC. Time now 2017-Feb-22 04:11 UTC.
Position N 46°34' W 002°45'.

Length 22 m; draft 3.4 m.

Type: Fishing. MMSI: 228975000.

Date/timePositionNaut miles runAvg speedWind from/ knotsBaromVisibWave heightAir tempDewpointWater temp
2017-Feb-22 03:32N 46°34' W 002°45'1 0.5
2017-Feb-22 02:33N 46°34' W 002°45'0 0.1
2017-Feb-22 00:08N 46°33' W 002°44'0 0.0
2017-Feb-21 22:17N 46°33' W 002°44'0 0.0
2017-Feb-21 21:23N 46°33' W 002°44'0 0.0
2017-Feb-21 19:23N 46°33' W 002°44'0 0.0
2017-Feb-21 18:05N 46°33' W 002°44'0 0.1
2017-Feb-21 17:32N 46°33' W 002°44'0 0.0
2017-Feb-21 16:20N 46°33' W 002°44'2 2.7
2017-Feb-21 15:33N 46°34' W 002°41'4 4.2
2017-Feb-21 14:33N 46°34' W 002°35'7 3.7
2017-Feb-21 12:33N 46°35' W 002°46'1 0.4
2017-Feb-21 10:22N 46°35' W 002°45'2 1.2
2017-Feb-21 08:28N 46°33' W 002°44'3 1.3
2017-Feb-21 06:11N 46°35' W 002°47'2 2.7
2017-Feb-21 05:26N 46°33' W 002°45'2 1.7
2017-Feb-21 04:19N 46°35' W 002°46'2 2.5
2017-Feb-21 03:33N 46°33' W 002°45'1 1.4
2017-Feb-21 02:30N 46°35' W 002°45'17 0.5
2017-Feb-19 18:20N 46°44' W 002°25'1 0.8
2017-Feb-19 16:32N 46°43' W 002°26'10 9.3
2017-Feb-19 15:30N 46°37' W 002°37'6 5.6
2017-Feb-19 14:30N 46°35' W 002°45'1 1.0
2017-Feb-19 13:33N 46°36' W 002°45'2 1.9
2017-Feb-19 12:18N 46°34' W 002°44'0 0.3
2017-Feb-19 11:20N 46°34' W 002°44'2 2.3
2017-Feb-19 10:32N 46°35' W 002°45'1 1.4
2017-Feb-19 09:34N 46°34' W 002°44'1 0.6
2017-Feb-19 08:29N 46°34' W 002°44'0 0.3
2017-Feb-19 07:33N 46°34' W 002°45'2 1.8
2017-Feb-19 06:33N 46°35' W 002°46'2 2.1
2017-Feb-19 05:34N 46°34' W 002°44'1 1.0
2017-Feb-19 04:34N 46°34' W 002°45'0 0.4
2017-Feb-19 03:26N 46°35' W 002°46'1 1.1
2017-Feb-19 02:33N 46°34' W 002°46'0 0.0
2017-Feb-19 01:21N 46°34' W 002°46'0 0.0
2017-Feb-19 00:24N 46°34' W 002°46'0 0.0
2017-Feb-18 23:30N 46°34' W 002°46'0 0.0
2017-Feb-18 13:30N 46°34' W 002°46'1 0.9
2017-Feb-18 12:33N 46°34' W 002°45'1 0.6
2017-Feb-18 11:32N 46°34' W 002°44'1 0.8
2017-Feb-18 10:33N 46°33' W 002°43'4 2.8
2017-Feb-18 09:17N 46°36' W 002°46'1 1.4
2017-Feb-18 08:33N 46°35' W 002°45'0 0.4
2017-Feb-18 07:25N 46°36' W 002°46'1 1.6
2017-Feb-18 06:33N 46°37' W 002°47'3 2.7
2017-Feb-18 05:34N 46°34' W 002°45'2 2.3
2017-Feb-18 04:34N 46°36' W 002°47'1 1.4
2017-Feb-18 03:34N 46°35' W 002°46'1 0.1
2017-Feb-17 21:06N 46°34' W 002°46'0 0.2
2017-Feb-17 20:33N 46°34' W 002°46'0 0.1
2017-Feb-17 17:09N 46°34' W 002°45'0 0.0
2017-Feb-17 16:30N 46°34' W 002°45'0 0.1
2017-Feb-17 14:30N 46°34' W 002°46'3 1.1
2017-Feb-17 12:15N 46°37' W 002°46'12 4.3
2017-Feb-17 09:22N 46°34' W 002°29'4 4.8
2017-Feb-17 08:33N 46°31' W 002°27'2 1.4
2017-Feb-17 07:25N 46°29' W 002°27'2 2.3
2017-Feb-17 06:34N 46°27' W 002°26'2 1.6
2017-Feb-17 05:33N 46°29' W 002°27'1 1.3
2017-Feb-17 04:32N 46°27' W 002°27'2 2.1
2017-Feb-17 03:31N 46°29' W 002°28'2 0.5
2017-Feb-17 00:19N 46°27' W 002°28'0 0.0
2017-Feb-16 22:19N 46°27' W 002°28'0 0.0
2017-Feb-16 20:31N 46°27' W 002°28'0 0.0
2017-Feb-16 19:16N 46°27' W 002°28'0 0.1
2017-Feb-16 18:19N 46°27' W 002°28'0 0.0
2017-Feb-16 16:23N 46°27' W 002°28'6 3.3
2017-Feb-16 14:29N 46°34' W 002°27'4 4.5
2017-Feb-16 13:33N 46°29' W 002°27'1 1.0
2017-Feb-16 12:20N 46°28' W 002°27'2 1.7
2017-Feb-16 11:19N 46°27' W 002°26'2 2.7
2017-Feb-16 10:33N 46°28' W 002°28'1 1.1
2017-Feb-16 09:17N 46°30' W 002°28'1 0.2
2017-Feb-16 04:13N 46°31' W 002°28'2 0.2
2017-Feb-15 19:29N 46°30' W 002°26'12 3.2
2017-Feb-15 15:32N 46°40' W 002°17'5 4.1
2017-Feb-15 14:24N 46°44' W 002°21'4 4.5
2017-Feb-15 13:32N 46°42' W 002°16'9 8.8
2017-Feb-15 12:33N 46°34' W 002°22'6 5.6
2017-Feb-15 11:33N 46°30' W 002°28'1 0.9
2017-Feb-15 10:22N 46°29' W 002°27'1 1.3
2017-Feb-15 09:33N 46°30' W 002°29'2 1.3
2017-Feb-15 08:15N 46°28' W 002°29'1 0.1
2017-Feb-14 13:16N 46°29' W 002°27'0 0.6
2017-Feb-14 12:29N 46°29' W 002°28'0 0.5
2017-Feb-14 11:33N 46°28' W 002°28'1 0.5
2017-Feb-14 10:27N 46°29' W 002°29'17 7.7
2017-Feb-14 08:16N 46°45' W 002°22'  
Track history (hours):
 
Tides and Currents Weather Stations Pressure Air Temp Water Temp Dewpoint Dewpoint Depression Visibility Wind Speed Wind Dir Waves Ship Positions

F/V Argentario

Last reported at 2017-Feb-22 03:32 UTC. Time now 2017-Feb-22 04:11 UTC.
Position N 46°34' W 002°45'.

Length 22 m; draft 3.4 m.

Type: Fishing. MMSI: 228975000.

Date/timePositionNaut miles runAvg speedWind from/ knotsBaromVisibWave heightAir tempDewpointWater temp
2017-Feb-22 03:32N 46°34' W 002°45'1 0.5
2017-Feb-22 02:33N 46°34' W 002°45'0 0.1
2017-Feb-22 00:08N 46°33' W 002°44'0 0.0
2017-Feb-21 22:17N 46°33' W 002°44'0 0.0
2017-Feb-21 21:23N 46°33' W 002°44'0 0.0
2017-Feb-21 19:23N 46°33' W 002°44'0 0.0
2017-Feb-21 18:05N 46°33' W 002°44'0 0.1
2017-Feb-21 17:32N 46°33' W 002°44'0 0.0
2017-Feb-21 16:20N 46°33' W 002°44'2 2.7
2017-Feb-21 15:33N 46°34' W 002°41'4 4.2
2017-Feb-21 14:33N 46°34' W 002°35'7 3.7
2017-Feb-21 12:33N 46°35' W 002°46'1 0.4
2017-Feb-21 10:22N 46°35' W 002°45'2 1.2
2017-Feb-21 08:28N 46°33' W 002°44'3 1.3
2017-Feb-21 06:11N 46°35' W 002°47'2 2.7
2017-Feb-21 05:26N 46°33' W 002°45'2 1.7
2017-Feb-21 04:19N 46°35' W 002°46'2 2.5
2017-Feb-21 03:33N 46°33' W 002°45'1 1.4
2017-Feb-21 02:30N 46°35' W 002°45'17 0.5
2017-Feb-19 18:20N 46°44' W 002°25'1 0.8
2017-Feb-19 16:32N 46°43' W 002°26'10 9.3
2017-Feb-19 15:30N 46°37' W 002°37'6 5.6
2017-Feb-19 14:30N 46°35' W 002°45'1 1.0
2017-Feb-19 13:33N 46°36' W 002°45'2 1.9
2017-Feb-19 12:18N 46°34' W 002°44'0 0.3
2017-Feb-19 11:20N 46°34' W 002°44'2 2.3
2017-Feb-19 10:32N 46°35' W 002°45'1 1.4
2017-Feb-19 09:34N 46°34' W 002°44'1 0.6
2017-Feb-19 08:29N 46°34' W 002°44'0 0.3
2017-Feb-19 07:33N 46°34' W 002°45'2 1.8
2017-Feb-19 06:33N 46°35' W 002°46'2 2.1
2017-Feb-19 05:34N 46°34' W 002°44'1 1.0
2017-Feb-19 04:34N 46°34' W 002°45'0 0.4
2017-Feb-19 03:26N 46°35' W 002°46'1 1.1
2017-Feb-19 02:33N 46°34' W 002°46'0 0.0
2017-Feb-19 01:21N 46°34' W 002°46'0 0.0
2017-Feb-19 00:24N 46°34' W 002°46'0 0.0
2017-Feb-18 23:30N 46°34' W 002°46'0 0.0
2017-Feb-18 13:30N 46°34' W 002°46'1 0.9
2017-Feb-18 12:33N 46°34' W 002°45'1 0.6
2017-Feb-18 11:32N 46°34' W 002°44'1 0.8
2017-Feb-18 10:33N 46°33' W 002°43'4 2.8
2017-Feb-18 09:17N 46°36' W 002°46'1 1.4
2017-Feb-18 08:33N 46°35' W 002°45'0 0.4
2017-Feb-18 07:25N 46°36' W 002°46'1 1.6
2017-Feb-18 06:33N 46°37' W 002°47'3 2.7
2017-Feb-18 05:34N 46°34' W 002°45'2 2.3
2017-Feb-18 04:34N 46°36' W 002°47'1 1.4
2017-Feb-18 03:34N 46°35' W 002°46'1 0.1
2017-Feb-17 21:06N 46°34' W 002°46'0 0.2
2017-Feb-17 20:33N 46°34' W 002°46'0 0.1
2017-Feb-17 17:09N 46°34' W 002°45'0 0.0
2017-Feb-17 16:30N 46°34' W 002°45'0 0.1
2017-Feb-17 14:30N 46°34' W 002°46'3 1.1
2017-Feb-17 12:15N 46°37' W 002°46'12 4.3
2017-Feb-17 09:22N 46°34' W 002°29'4 4.8
2017-Feb-17 08:33N 46°31' W 002°27'2 1.4
2017-Feb-17 07:25N 46°29' W 002°27'2 2.3
2017-Feb-17 06:34N 46°27' W 002°26'2 1.6
2017-Feb-17 05:33N 46°29' W 002°27'1 1.3
2017-Feb-17 04:32N 46°27' W 002°27'2 2.1
2017-Feb-17 03:31N 46°29' W 002°28'2 0.5
2017-Feb-17 00:19N 46°27' W 002°28'0 0.0
2017-Feb-16 22:19N 46°27' W 002°28'0 0.0
2017-Feb-16 20:31N 46°27' W 002°28'0 0.0
2017-Feb-16 19:16N 46°27' W 002°28'0 0.1
2017-Feb-16 18:19N 46°27' W 002°28'0 0.0
2017-Feb-16 16:23N 46°27' W 002°28'6 3.3
2017-Feb-16 14:29N 46°34' W 002°27'4 4.5
2017-Feb-16 13:33N 46°29' W 002°27'1 1.0
2017-Feb-16 12:20N 46°28' W 002°27'2 1.7
2017-Feb-16 11:19N 46°27' W 002°26'2 2.7
2017-Feb-16 10:33N 46°28' W 002°28'1 1.1
2017-Feb-16 09:17N 46°30' W 002°28'1 0.2
2017-Feb-16 04:13N 46°31' W 002°28'2 0.2
2017-Feb-15 19:29N 46°30' W 002°26'12 3.2
2017-Feb-15 15:32N 46°40' W 002°17'5 4.1
2017-Feb-15 14:24N 46°44' W 002°21'4 4.5
2017-Feb-15 13:32N 46°42' W 002°16'9 8.8
2017-Feb-15 12:33N 46°34' W 002°22'6 5.6
2017-Feb-15 11:33N 46°30' W 002°28'1 0.9
2017-Feb-15 10:22N 46°29' W 002°27'1 1.3
2017-Feb-15 09:33N 46°30' W 002°29'2 1.3
2017-Feb-15 08:15N 46°28' W 002°29'1 0.1
2017-Feb-14 13:16N 46°29' W 002°27'0 0.6
2017-Feb-14 12:29N 46°29' W 002°28'0 0.5
2017-Feb-14 11:33N 46°28' W 002°28'1 0.5
2017-Feb-14 10:27N 46°29' W 002°29'17 7.7
2017-Feb-14 08:16N 46°45' W 002°22'  

Dump ship's entire track history